createdAt,value
2018-08-27T00:02:23.350Z,13.40
2018-08-27T00:07:26.397Z,13.30
2018-08-27T00:12:29.489Z,13.30
2018-08-27T00:17:32.548Z,13.30
2018-08-27T00:22:35.625Z,13.30
2018-08-27T00:27:38.691Z,13.30
2018-08-27T00:32:41.878Z,13.40
2018-08-27T00:37:44.909Z,13.40
2018-08-27T00:42:48.003Z,13.50
2018-08-27T00:47:51.068Z,13.50
2018-08-27T00:52:54.140Z,13.50
2018-08-27T00:57:57.223Z,13.60
2018-08-27T01:03:00.250Z,13.60
2018-08-27T01:08:03.268Z,13.50
2018-08-27T01:13:06.344Z,13.40
2018-08-27T01:18:09.416Z,13.40
2018-08-27T01:23:12.481Z,13.40
2018-08-27T01:28:15.572Z,13.40
2018-08-27T01:33:18.708Z,13.40
2018-08-27T01:38:21.713Z,13.30
2018-08-27T01:43:24.784Z,13.20
2018-08-27T01:48:27.812Z,13.20
2018-08-27T01:53:31.042Z,13.00
2018-08-27T01:58:34.181Z,13.00
2018-08-27T02:03:37.307Z,12.90
2018-08-27T02:08:40.462Z,12.80
2018-08-27T02:13:43.476Z,12.80
2018-08-27T02:18:46.551Z,12.80
2018-08-27T02:23:49.732Z,12.90
2018-08-27T02:28:52.748Z,12.90
2018-08-27T02:33:55.744Z,12.80
2018-08-27T02:38:58.877Z,12.80
2018-08-27T02:44:01.941Z,12.70
2018-08-27T02:49:05.043Z,12.60
2018-08-27T02:54:08.139Z,12.60
2018-08-27T02:59:11.294Z,12.50
2018-08-27T03:04:14.360Z,12.50
2018-08-27T03:09:17.391Z,12.50
2018-08-27T03:14:20.576Z,12.60
2018-08-27T03:19:23.609Z,12.60
2018-08-27T03:24:26.698Z,12.70
2018-08-27T03:29:29.800Z,12.70
2018-08-27T03:34:32.838Z,12.70
2018-08-27T03:39:35.921Z,12.70
2018-08-27T03:44:39.067Z,12.70
2018-08-27T03:49:42.313Z,12.70
2018-08-27T03:54:45.357Z,12.70
2018-08-27T03:59:48.411Z,12.50
2018-08-27T04:04:51.464Z,12.50
2018-08-27T04:09:54.481Z,12.40
2018-08-27T04:14:57.585Z,12.40
2018-08-27T04:20:02.027Z,12.30
2018-08-27T04:25:05.127Z,12.30
2018-08-27T04:30:08.210Z,12.30
2018-08-27T04:35:11.297Z,12.30
2018-08-27T04:40:14.382Z,12.40
2018-08-27T04:45:17.475Z,12.40
2018-08-27T04:50:20.547Z,12.40
2018-08-27T04:55:23.655Z,12.50
2018-08-27T05:00:31.250Z,12.80
2018-08-27T05:05:34.547Z,13.00
2018-08-27T05:10:37.678Z,13.20
2018-08-27T05:15:40.737Z,13.40
2018-08-27T05:20:43.898Z,13.40
2018-08-27T05:25:46.964Z,13.60
2018-08-27T05:30:50.090Z,13.70
2018-08-27T05:35:53.195Z,13.80
2018-08-27T05:40:56.285Z,13.80
2018-08-27T05:45:59.380Z,13.90
2018-08-27T05:51:02.561Z,14.00
2018-08-27T05:56:05.803Z,14.20
2018-08-27T06:01:08.901Z,14.30
2018-08-27T06:06:12.072Z,14.20
2018-08-27T06:11:15.255Z,14.30
2018-08-27T06:16:18.381Z,14.40
2018-08-27T06:21:21.348Z,14.90
2018-08-27T06:26:24.380Z,15.70
2018-08-27T06:31:34.197Z,17.00
2018-08-27T06:36:37.690Z,18.20
2018-08-27T06:41:40.740Z,18.10
2018-08-27T06:46:43.801Z,17.60
2018-08-27T06:51:46.875Z,17.10
2018-08-27T06:56:50.036Z,17.30
2018-08-27T07:01:53.187Z,18.00
2018-08-27T07:06:56.287Z,18.00
2018-08-27T07:11:59.407Z,17.90
2018-08-27T07:17:02.629Z,18.00
2018-08-27T07:22:05.800Z,18.30
2018-08-27T07:27:08.865Z,18.80
2018-08-27T07:32:11.960Z,18.70
2018-08-27T07:37:15.023Z,18.60
2018-08-27T07:42:18.166Z,19.00
2018-08-27T07:47:21.235Z,19.20
2018-08-27T07:52:24.302Z,19.10
2018-08-27T07:57:27.412Z,19.10
2018-08-27T08:02:30.604Z,19.70
2018-08-27T08:07:33.660Z,20.70
2018-08-27T08:12:36.739Z,21.30
2018-08-27T08:17:39.812Z,21.40
2018-08-27T08:22:43.484Z,22.10
2018-08-27T08:27:46.588Z,23.20
2018-08-27T08:32:49.722Z,23.80
2018-08-27T08:37:52.874Z,24.10
2018-08-27T08:42:56.032Z,23.70
2018-08-27T08:47:59.051Z,23.70
2018-08-27T08:53:02.202Z,23.80
2018-08-27T08:58:05.407Z,23.80
2018-08-27T09:03:08.449Z,23.70
2018-08-27T09:08:11.759Z,23.30
2018-08-27T09:13:14.904Z,22.90
2018-08-27T09:18:17.956Z,22.60
2018-08-27T09:23:21.024Z,22.50
2018-08-27T09:28:24.183Z,22.50
2018-08-27T09:33:27.204Z,22.50
2018-08-27T09:38:30.233Z,22.30
2018-08-27T09:43:33.272Z,22.20
2018-08-27T09:48:36.404Z,21.90
2018-08-27T09:53:39.529Z,21.90
2018-08-27T09:58:42.804Z,21.80
2018-08-27T10:03:45.853Z,21.80
2018-08-27T10:08:49.045Z,22.00
2018-08-27T10:13:52.030Z,22.20
2018-08-27T10:18:55.092Z,22.20
2018-08-27T10:23:58.191Z,22.00
2018-08-27T10:29:01.249Z,21.90
2018-08-27T10:34:04.435Z,21.90
2018-08-27T10:39:08.566Z,21.70
2018-08-27T10:44:11.569Z,21.70
2018-08-27T10:49:14.616Z,21.70
2018-08-27T10:54:17.681Z,21.80
2018-08-27T10:59:20.759Z,21.90
2018-08-27T11:04:23.783Z,21.80
2018-08-27T11:09:26.842Z,21.70
2018-08-27T11:14:29.891Z,21.70
2018-08-27T11:19:32.935Z,21.60
2018-08-27T11:24:36.001Z,21.60
2018-08-27T11:29:39.052Z,21.80
2018-08-27T11:34:42.077Z,22.00
2018-08-27T11:39:45.182Z,22.00
2018-08-27T11:44:48.232Z,21.80
2018-08-27T11:49:51.282Z,21.50
2018-08-27T11:54:54.371Z,21.50
2018-08-27T11:59:57.765Z,21.30
2018-08-27T12:05:00.826Z,21.50
2018-08-27T12:10:03.941Z,21.80
2018-08-27T12:15:06.983Z,21.80
2018-08-27T12:20:10.069Z,21.90
2018-08-27T12:25:13.216Z,22.00
2018-08-27T12:30:16.300Z,22.10
2018-08-27T12:35:19.316Z,22.30
2018-08-27T12:40:22.407Z,22.50
2018-08-27T12:45:25.467Z,22.70
2018-08-27T12:50:28.760Z,22.50
2018-08-27T12:55:31.830Z,22.40
2018-08-27T13:00:34.918Z,22.40
2018-08-27T13:05:38.067Z,22.40
2018-08-27T13:10:41.101Z,22.30
2018-08-27T13:15:44.255Z,22.30
2018-08-27T13:20:47.265Z,22.40
2018-08-27T13:25:50.395Z,22.50
2018-08-27T13:30:53.479Z,22.60
2018-08-27T13:35:56.564Z,22.70
2018-08-27T13:40:59.691Z,23.10
2018-08-27T13:46:02.791Z,23.30
2018-08-27T13:51:05.868Z,23.30
2018-08-27T13:56:08.895Z,23.10
2018-08-27T14:01:11.939Z,23.10
2018-08-27T14:06:14.970Z,23.00
2018-08-27T14:11:18.000Z,22.80
2018-08-27T14:16:21.081Z,22.90
2018-08-27T14:21:24.169Z,22.80
2018-08-27T14:26:27.320Z,22.40
2018-08-27T14:31:30.442Z,22.10
2018-08-27T14:36:33.505Z,22.40
2018-08-27T14:41:36.680Z,22.50
2018-08-27T14:46:39.944Z,22.50
2018-08-27T14:51:43.025Z,22.40
2018-08-27T14:56:46.101Z,22.40
2018-08-27T15:01:49.314Z,22.20
2018-08-27T15:06:52.378Z,22.10
2018-08-27T15:11:55.513Z,22.20
2018-08-27T15:16:58.668Z,22.30
2018-08-27T15:22:01.929Z,22.40
2018-08-27T15:27:05.113Z,22.50
2018-08-27T15:32:08.200Z,22.50
2018-08-27T15:37:11.372Z,22.60
2018-08-27T15:42:14.430Z,22.70
2018-08-27T15:47:17.494Z,22.60
2018-08-27T15:52:20.512Z,22.60
2018-08-27T15:57:23.673Z,22.60
2018-08-27T16:02:26.747Z,22.60
2018-08-27T16:07:29.812Z,22.50
2018-08-27T16:12:33.884Z,22.60
2018-08-27T16:17:37.189Z,22.50
2018-08-27T16:22:40.351Z,22.40
2018-08-27T16:27:43.465Z,22.40
2018-08-27T16:32:46.531Z,22.40
2018-08-27T16:37:49.599Z,22.40
2018-08-27T16:42:52.599Z,22.30
2018-08-27T16:47:55.670Z,22.20
2018-08-27T16:52:58.720Z,22.10
2018-08-27T16:58:01.838Z,22.10
2018-08-27T17:03:04.904Z,21.90
2018-08-27T17:08:08.066Z,21.90
2018-08-27T17:13:11.130Z,21.70
2018-08-27T17:23:45.427Z,21.60
2018-08-27T17:28:48.623Z,21.50
2018-08-27T17:33:51.705Z,21.40
2018-08-27T17:38:54.764Z,21.30
2018-08-27T17:43:57.889Z,21.10
2018-08-27T17:49:01.030Z,20.90
2018-08-27T17:54:04.095Z,20.80
2018-08-27T17:59:07.147Z,20.70
2018-08-27T18:04:10.199Z,20.60
2018-08-27T18:09:13.406Z,20.60
2018-08-27T18:14:16.456Z,20.60
2018-08-27T18:19:19.471Z,20.50
2018-08-27T18:24:22.592Z,20.50
2018-08-27T18:29:31.554Z,20.50
2018-08-27T18:34:34.564Z,20.40
2018-08-27T18:39:37.817Z,20.20
2018-08-27T18:49:52.987Z,19.90
2018-08-27T18:54:56.156Z,19.80
2018-08-27T18:59:59.302Z,19.70
2018-08-27T19:05:02.807Z,19.50
2018-08-27T19:10:05.997Z,19.50
2018-08-27T19:15:09.031Z,19.40
2018-08-27T19:20:12.099Z,19.30
2018-08-27T19:25:15.177Z,19.30
2018-08-27T19:30:19.006Z,19.20
2018-08-27T19:35:22.085Z,19.10
2018-08-27T19:40:25.201Z,19.10
2018-08-27T19:45:28.485Z,19.10
2018-08-27T19:50:31.550Z,19.10
2018-08-27T19:55:35.576Z,19.20
2018-08-27T20:00:38.575Z,19.20
2018-08-27T20:05:41.905Z,19.20
2018-08-27T20:10:44.937Z,19.30
2018-08-27T20:15:48.067Z,19.30
2018-08-27T20:20:51.121Z,19.30
2018-08-27T20:25:54.711Z,19.30
2018-08-27T20:30:57.734Z,19.30
2018-08-27T20:36:00.928Z,19.30
2018-08-27T20:41:03.980Z,19.30
2018-08-27T20:46:07.014Z,19.30
2018-08-27T20:51:10.065Z,19.30
2018-08-27T20:56:14.092Z,19.30
2018-08-27T21:01:17.100Z,19.20
2018-08-27T21:06:20.232Z,19.20
2018-08-27T21:11:24.423Z,19.10
2018-08-27T21:16:27.450Z,19.00
2018-08-27T21:21:30.493Z,18.80
2018-08-27T21:26:33.595Z,18.70
2018-08-27T21:31:36.626Z,18.60
2018-08-27T21:36:39.716Z,18.60
2018-08-27T21:41:42.774Z,18.60
2018-08-27T21:46:45.879Z,18.50
2018-08-27T21:51:48.962Z,18.50
2018-08-27T21:56:52.128Z,18.50
2018-08-27T22:01:55.174Z,18.40
2018-08-27T22:06:58.252Z,18.30
2018-08-27T22:12:01.319Z,18.30
2018-08-27T22:17:04.847Z,18.30
2018-08-27T22:22:07.915Z,18.20
2018-08-27T22:27:10.928Z,18.10
2018-08-27T22:32:13.978Z,17.90
2018-08-27T22:37:17.012Z,17.80
2018-08-27T22:42:20.068Z,17.70
2018-08-27T22:47:23.222Z,17.70
2018-08-27T22:52:27.370Z,17.70
2018-08-27T22:57:30.423Z,17.70
2018-08-27T23:02:38.744Z,17.80
2018-08-27T23:07:42.004Z,17.70
2018-08-27T23:12:45.099Z,17.70
2018-08-27T23:17:48.150Z,17.70
2018-08-27T23:22:51.211Z,17.60
2018-08-27T23:27:54.255Z,17.60
2018-08-27T23:32:57.346Z,17.60
2018-08-27T23:38:00.608Z,17.60
2018-08-27T23:43:03.784Z,17.60
2018-08-27T23:48:06.850Z,17.60
2018-08-27T23:53:09.961Z,17.60
2018-08-27T23:58:13.041Z,17.50
